首页
METAR-TAF:

METAR-TAF

机场 :

盧加諾, 瑞士

纬度: 46-00N, 经度: 008-58E, 海拔: 273米

当前天气观测

该预报发布于17分钟前的18:50 UTC
风速3节,风向南转南东
温度 29°C
湿度 66%
气压 1020 hPa
能见度10公里或以上
1500米以下无云,无积雨云

METAR: LSZA 221850Z 16003KT CAVOK 29/22 Q1020 NOSIG

时间: 21:07 (19:07 UTC)

预报

该预报发布于4小时和42分钟前的14:25 UTC
预报有效从22日的 15点(UTC)到 22日的 24点(UTC)
风速7节,风向
能见度10公里或以上
少量云层高于5000英尺
多云层高于18000英尺

TAF: LSZA 221425Z 2215/2224 19007KT 9999 FEW050 BKN180

超过4000个机场的气象观测和天气预报(METAR&TAF报告)。

可查询的气象台以黄色和红色小点在地图上表示。

将鼠标移到小点上方,可查看气象台名称。

然后点击查看天气观测和预报。

如需切换地图:点击带黑十字的绿色按钮放大地图;点击带横线的绿色按钮缩小地图;或者点击绿色箭头查看邻近地区的地图。


METAR-TAF: